Time;durP1;ratioP1;P1;durP2;ratioP2;P2;SDS_P1;SDS_P2;PMS_P1;PMS_P2;Temp;Humidity;BMP_temperature;BMP_pressure;BME280_temperature;BME280_humidity;BME280_pressure;Samples;Min_cycle;Max_cycle;Signal;HPM_P1;HPM_P2
2024/01/06 00:01:29;;;;;;;13.88;12.77;;;3.20;99.90;;;;;;5001175;28;20088;-83
2024/01/06 00:03:55;;;;;;;13.05;12.13;;;3.10;99.90;;;;;;5033405;28;20057;-82
2024/01/06 00:06:21;;;;;;;12.10;11.00;;;3.10;99.90;;;;;;5000810;28;20056;-83
2024/01/06 00:08:53;;;;;;;13.80;12.80;;;3.40;99.90;;;;;;5016995;28;20139;-82
2024/01/06 00:11:20;;;;;;;12.15;11.25;;;3.10;99.90;;;;;;5018892;28;20103;-83
2024/01/06 00:13:46;;;;;;;12.88;11.77;;;3.40;99.90;;;;;;5016801;28;20109;-82
2024/01/06 00:16:11;;;;;;;12.93;11.82;;;3.60;99.90;;;;;;5033778;28;20042;-82
2024/01/06 00:18:37;;;;;;;13.80;12.70;;;2.90;99.90;;;;;;5000735;28;20037;-83
2024/01/06 00:21:03;;;;;;;13.35;12.25;;;3.20;99.90;;;;;;5016990;28;20449;-83
2024/01/06 00:23:28;;;;;;;13.43;12.27;;;2.80;99.90;;;;;;5033067;28;20041;-83
2024/01/06 00:25:54;;;;;;;14.77;13.68;;;3.40;99.90;;;;;;5033402;28;20087;-83
2024/01/06 00:28:20;;;;;;;15.35;14.13;;;2.70;99.90;;;;;;5033316;28;20406;-83
2024/01/06 00:30:45;;;;;;;14.30;13.15;;;2.70;99.90;;;;;;5033251;28;20050;-83
2024/01/06 00:33:12;;;;;;;15.80;14.68;;;3.10;99.90;;;;;;5016850;28;20045;-83
2024/01/06 00:35:37;;;;;;;16.27;14.88;;;2.70;99.90;;;;;;5032973;28;20046;-83
2024/01/06 00:38:03;;;;;;;15.90;14.60;;;3.10;99.90;;;;;;5017516;28;20049;-83
2024/01/06 00:40:29;;;;;;;13.55;12.38;;;2.70;99.90;;;;;;5033303;28;20151;-83
2024/01/06 00:42:55;;;;;;;14.55;13.45;;;2.70;99.90;;;;;;5016416;28;20046;-83
2024/01/06 00:45:20;;;;;;;15.68;14.35;;;2.70;99.90;;;;;;5016628;28;20131;-82
2024/01/06 00:47:46;;;;;;;16.48;15.07;;;3.20;99.90;;;;;;5016857;28;20041;-83
2024/01/06 00:50:12;;;;;;;15.88;14.68;;;3.30;99.90;;;;;;5032660;28;20128;-83
2024/01/06 00:52:38;;;;;;;13.98;12.75;;;2.70;99.90;;;;;;5032778;28;20111;-83
2024/01/06 00:55:04;;;;;;;13.90;12.70;;;3.10;99.90;;;;;;5032857;28;20054;-83
2024/01/06 00:57:29;;;;;;;15.00;13.80;;;3.20;99.90;;;;;;5032863;28;20125;-83
2024/01/06 00:59:55;;;;;;;14.15;12.95;;;2.70;99.90;;;;;;5000359;28;20397;-83
2024/01/06 01:02:21;;;;;;;13.40;12.35;;;2.80;99.90;;;;;;5016206;28;20052;-83
2024/01/06 01:04:47;;;;;;;15.40;14.18;;;2.90;99.90;;;;;;5000191;28;20045;-82
2024/01/06 01:07:13;;;;;;;15.45;13.95;;;2.90;99.90;;;;;;5000787;28;20380;-83
2024/01/06 01:09:38;;;;;;;15.77;14.38;;;2.70;99.90;;;;;;5016608;28;20056;-83
2024/01/06 01:12:04;;;;;;;14.32;13.15;;;2.70;99.90;;;;;;5032723;28;20390;-83
2024/01/06 01:14:30;;;;;;;15.45;14.07;;;2.80;99.90;;;;;;5016997;28;20049;-83
2024/01/06 01:16:56;;;;;;;14.73;13.38;;;2.70;99.90;;;;;;5032623;28;20110;-84
2024/01/06 01:19:21;;;;;;;16.17;14.77;;;2.80;99.90;;;;;;4984378;28;20049;-83
2024/01/06 01:21:47;;;;;;;15.68;14.38;;;2.70;99.90;;;;;;5033330;28;20128;-83
2024/01/06 01:24:12;;;;;;;15.50;14.00;;;2.80;99.90;;;;;;5016060;28;20056;-84
2024/01/06 01:26:38;;;;;;;14.18;12.75;;;3.10;99.90;;;;;;4999728;28;20112;-83
2024/01/06 01:29:04;;;;;;;14.73;13.50;;;2.60;99.90;;;;;;5016107;28;20500;-83
2024/01/06 01:31:30;;;;;;;15.48;14.00;;;3.30;99.90;;;;;;5016007;28;20045;-83
2024/01/06 01:33:55;;;;;;;13.95;12.65;;;2.50;99.90;;;;;;4999627;28;20127;-84
2024/01/06 01:36:21;;;;;;;15.48;13.98;;;2.80;99.90;;;;;;5032420;28;20041;-83
2024/01/06 01:38:47;;;;;;;15.30;13.73;;;2.50;99.90;;;;;;5032358;28;20072;-84
2024/01/06 01:41:12;;;;;;;15.43;14.02;;;2.40;99.90;;;;;;4999898;28;20045;-83
2024/01/06 01:43:38;;;;;;;13.88;12.57;;;2.40;99.90;;;;;;5032875;28;20053;-83
2024/01/06 01:46:04;;;;;;;14.40;13.02;;;2.40;99.90;;;;;;5016701;28;20038;-82
2024/01/06 01:48:33;;;;;;;15.07;13.68;;;2.40;99.90;;;;;;5032870;28;20417;-82
2024/01/06 01:50:59;;;;;;;14.93;13.52;;;2.40;99.90;;;;;;5016492;28;20355;-82
2024/01/06 01:53:26;;;;;;;14.90;13.50;;;2.40;99.90;;;;;;5016322;28;20189;-83
2024/01/06 01:55:53;;;;;;;15.70;14.32;;;2.80;99.90;;;;;;5016123;28;20365;-82
2024/01/06 01:58:19;;;;;;;14.70;13.43;;;2.90;99.90;;;;;;4999495;28;20049;-82
2024/01/06 02:00:44;;;;;;;13.27;12.10;;;2.40;99.90;;;;;;4999463;28;20041;-82
2024/01/06 02:03:12;;;;;;;14.80;13.45;;;2.60;99.90;;;;;;5015542;28;20080;-82
2024/01/06 02:05:38;;;;;;;14.70;13.50;;;2.40;99.90;;;;;;5015918;28;20145;-83
2024/01/06 02:08:05;;;;;;;14.85;13.65;;;2.40;99.90;;;;;;5018673;28;20132;-83
2024/01/06 02:10:31;;;;;;;14.13;12.88;;;2.50;99.90;;;;;;5019379;28;20053;-83
2024/01/06 02:12:56;;;;;;;15.52;13.35;;;2.50;99.90;;;;;;5019667;28;20053;-83
2024/01/06 02:15:22;;;;;;;15.57;13.98;;;2.40;99.90;;;;;;5019429;28;20045;-83
2024/01/06 02:17:48;;;;;;;13.35;12.15;;;2.40;99.90;;;;;;5019482;28;20136;-82
2024/01/06 02:20:16;;;;;;;14.00;12.50;;;2.40;99.90;;;;;;5036056;28;20042;-82
2024/01/06 02:22:41;;;;;;;12.77;11.57;;;2.50;99.90;;;;;;5036278;28;20429;-82
2024/01/06 02:25:12;;;;;;;13.27;11.93;;;2.40;99.90;;;;;;5035910;28;20041;-82
2024/01/06 02:27:39;;;;;;;13.63;12.43;;;2.40;99.90;;;;;;5036546;28;20101;-82
2024/01/06 02:30:06;;;;;;;14.27;12.93;;;2.40;99.90;;;;;;5019077;28;20060;-82
2024/01/06 02:32:32;;;;;;;14.77;13.30;;;2.30;99.90;;;;;;5035828;28;20049;-83
2024/01/06 02:34:57;;;;;;;14.50;13.02;;;2.40;99.90;;;;;;5035616;28;20470;-82
2024/01/06 02:37:23;;;;;;;14.07;12.70;;;2.30;99.90;;;;;;5002449;28;20054;-82
2024/01/06 02:39:49;;;;;;;14.65;13.15;;;2.20;99.90;;;;;;5002606;28;20134;-82
2024/01/06 02:42:14;;;;;;;13.15;11.95;;;2.20;99.90;;;;;;5035455;28;20053;-82
2024/01/06 02:44:40;;;;;;;14.88;13.48;;;2.20;99.90;;;;;;5002454;28;20045;-83
2024/01/06 02:47:06;;;;;;;14.77;13.15;;;2.20;99.90;;;;;;5019571;28;20365;-83
2024/01/06 02:49:31;;;;;;;14.52;13.10;;;2.70;99.90;;;;;;5002571;28;20055;-83
2024/01/06 02:51:57;;;;;;;13.52;12.23;;;2.10;99.90;;;;;;5034671;28;20405;-83
2024/01/06 02:54:23;;;;;;;14.65;13.15;;;2.60;99.90;;;;;;5035963;28;20041;-83
2024/01/06 02:56:48;;;;;;;13.95;12.63;;;2.10;99.90;;;;;;5035097;28;20060;-83
2024/01/06 02:59:14;;;;;;;13.18;11.88;;;2.10;99.90;;;;;;5035032;28;20049;-83
2024/01/06 03:01:40;;;;;;;14.23;12.82;;;2.00;99.90;;;;;;5034954;28;20045;-83
2024/01/06 03:04:05;;;;;;;14.95;13.55;;;2.10;99.90;;;;;;5018438;28;20091;-83
2024/01/06 03:06:31;;;;;;;13.55;12.18;;;2.60;99.90;;;;;;5035954;28;20045;-83
2024/01/06 03:08:56;;;;;;;14.10;12.75;;;2.30;99.90;;;;;;5034543;28;20047;-82
2024/01/06 03:11:22;;;;;;;13.30;11.95;;;2.10;99.90;;;;;;5001736;28;20049;-82
2024/01/06 03:13:48;;;;;;;13.88;12.43;;;2.00;99.90;;;;;;5018357;28;20045;-82
2024/01/06 03:16:14;;;;;;;15.90;12.10;;;2.00;99.90;;;;;;5019103;28;20045;-82
2024/01/06 03:18:39;;;;;;;13.48;12.15;;;2.00;99.90;;;;;;5002470;28;20056;-82
2024/01/06 03:21:05;;;;;;;12.65;11.45;;;2.00;99.90;;;;;;5001852;28;20053;-82
2024/01/06 03:23:30;;;;;;;14.10;12.15;;;2.00;99.90;;;;;;5018177;28;20128;-82
2024/01/06 03:25:56;;;;;;;12.93;11.63;;;2.40;99.90;;;;;;5018118;28;20045;-83
2024/01/06 03:28:22;;;;;;;13.27;12.07;;;2.30;99.90;;;;;;5034538;28;20048;-83
2024/01/06 03:30:48;;;;;;;13.55;12.32;;;2.60;99.90;;;;;;5017953;28;20053;-83
2024/01/06 03:33:14;;;;;;;14.13;12.77;;;1.90;99.90;;;;;;5018197;28;20128;-82
2024/01/06 03:35:39;;;;;;;13.68;12.27;;;2.70;99.90;;;;;;5035586;28;20042;-83
2024/01/06 03:38:05;;;;;;;13.23;12.02;;;2.00;99.90;;;;;;5001502;28;20481;-83
2024/01/06 03:40:30;;;;;;;14.95;13.52;;;1.90;99.90;;;;;;5034335;28;20571;-83
2024/01/06 03:42:56;;;;;;;14.73;13.32;;;2.60;99.90;;;;;;5034794;28;20046;-82
2024/01/06 03:45:22;;;;;;;13.75;12.38;;;2.00;99.90;;;;;;5001715;28;20045;-82
2024/01/06 03:47:47;;;;;;;14.45;12.18;;;2.50;99.90;;;;;;5034081;28;20521;-83
2024/01/06 03:50:13;;;;;;;13.52;11.85;;;2.00;99.90;;;;;;5017965;28;20045;-83
2024/01/06 03:52:39;;;;;;;11.85;10.80;;;2.00;99.90;;;;;;5000905;28;20060;-82
2024/01/06 03:55:05;;;;;;;12.05;10.85;;;1.90;99.90;;;;;;5017807;28;20089;-82
2024/01/06 03:57:31;;;;;;;13.05;11.70;;;1.90;99.90;;;;;;5034206;28;20049;-82
2024/01/06 03:59:57;;;;;;;12.13;10.88;;;1.80;99.90;;;;;;5018221;28;20052;-82
2024/01/06 04:02:23;;;;;;;12.90;11.80;;;1.80;99.90;;;;;;5017980;28;20081;-82
2024/01/06 04:04:49;;;;;;;13.48;12.07;;;1.80;99.90;;;;;;5033731;28;20513;-82
2024/01/06 04:07:15;;;;;;;13.38;12.18;;;1.80;99.90;;;;;;5017371;28;20053;-82
2024/01/06 04:09:44;;;;;;;12.65;11.45;;;1.80;99.90;;;;;;5016919;28;20164;-82
2024/01/06 04:12:09;;;;;;;12.00;10.88;;;1.90;99.90;;;;;;5000925;28;20041;-82
2024/01/06 04:14:35;;;;;;;11.07;9.98;;;1.80;99.90;;;;;;5034395;28;20057;-82
2024/01/06 04:17:01;;;;;;;11.90;10.70;;;2.60;99.90;;;;;;5033530;28;20041;-82
2024/01/06 04:19:26;;;;;;;11.18;10.18;;;1.80;99.90;;;;;;5000767;28;20049;-82
2024/01/06 04:21:52;;;;;;;12.02;10.93;;;1.80;99.90;;;;;;5016769;28;20042;-83
2024/01/06 04:24:18;;;;;;;12.57;11.50;;;2.10;99.90;;;;;;5000261;28;20111;-82
2024/01/06 04:26:44;;;;;;;12.85;11.65;;;1.80;99.90;;;;;;5033291;28;20047;-83
2024/01/06 04:29:11;;;;;;;11.68;10.77;;;1.80;99.90;;;;;;5016252;28;20045;-82
2024/01/06 04:31:37;;;;;;;12.88;11.77;;;1.90;99.90;;;;;;5016860;28;20128;-83
2024/01/06 04:34:03;;;;;;;11.90;10.73;;;1.90;99.90;;;;;;5000769;28;20145;-82
2024/01/06 04:36:28;;;;;;;11.75;10.75;;;1.90;99.90;;;;;;5016717;28;20409;-82
2024/01/06 04:38:54;;;;;;;12.80;11.65;;;1.90;99.90;;;;;;5032814;28;20049;-82
2024/01/06 04:41:20;;;;;;;11.93;10.90;;;1.90;99.90;;;;;;5000325;28;20094;-82
2024/01/06 04:43:47;;;;;;;11.20;10.23;;;1.80;99.90;;;;;;5032986;28;20057;-82
2024/01/06 04:46:12;;;;;;;11.00;10.00;;;2.30;99.90;;;;;;5001164;28;20041;-82
2024/01/06 04:48:40;;;;;;;10.93;9.95;;;1.90;99.90;;;;;;5032973;28;20041;-82
2024/01/06 04:51:09;;;;;;;12.23;11.02;;;1.80;99.90;;;;;;5016735;28;20064;-82
2024/01/06 04:53:36;;;;;;;12.52;11.43;;;1.80;99.90;;;;;;5001408;28;20458;-82
2024/01/06 04:56:01;;;;;;;12.63;11.52;;;2.20;99.90;;;;;;5016789;28;20142;-82
2024/01/06 04:58:27;;;;;;;11.90;10.88;;;1.90;99.90;;;;;;5000123;28;20093;-82
2024/01/06 05:00:53;;;;;;;11.75;10.55;;;2.50;99.90;;;;;;5033366;28;20090;-82
2024/01/06 05:03:19;;;;;;;11.70;10.70;;;2.40;99.90;;;;;;5016179;28;20045;-83
2024/01/06 05:05:45;;;;;;;11.73;10.63;;;1.90;99.90;;;;;;5032753;28;20497;-82
2024/01/06 05:08:10;;;;;;;12.80;11.57;;;1.90;99.90;;;;;;5016477;28;20063;-83
2024/01/06 05:10:36;;;;;;;11.30;10.30;;;1.90;99.90;;;;;;5016645;28;20060;-82
2024/01/06 05:13:02;;;;;;;12.52;11.43;;;1.90;99.90;;;;;;5016549;28;20045;-82
2024/01/06 05:15:27;;;;;;;12.85;11.57;;;1.90;99.90;;;;;;5032665;28;20437;-82
2024/01/06 05:17:53;;;;;;;12.60;11.48;;;1.90;99.90;;;;;;5016283;28;20053;-82
2024/01/06 05:20:19;;;;;;;11.60;10.50;;;1.90;99.90;;;;;;5033466;28;20048;-82
2024/01/06 05:22:44;;;;;;;12.80;10.90;;;2.40;99.90;;;;;;5016279;28;20046;-82
2024/01/06 05:25:10;;;;;;;11.68;10.75;;;1.80;99.90;;;;;;5032779;28;20049;-82
2024/01/06 05:27:36;;;;;;;13.68;10.68;;;1.80;99.90;;;;;;4983682;28;20140;-82
2024/01/06 05:30:02;;;;;;;13.20;11.80;;;1.80;99.90;;;;;;5016097;28;20045;-82
2024/01/06 05:32:27;;;;;;;12.95;11.82;;;1.80;99.90;;;;;;5032499;28;20053;-82
2024/01/06 05:34:53;;;;;;;12.25;11.05;;;1.90;99.90;;;;;;5015781;28;20175;-82
2024/01/06 05:37:19;;;;;;;13.18;11.75;;;2.20;99.90;;;;;;5015998;28;20048;-82
2024/01/06 05:39:44;;;;;;;14.00;11.73;;;1.80;99.90;;;;;;4999686;28;20448;-82
2024/01/06 05:42:15;;;;;;;12.43;10.82;;;1.90;99.90;;;;;;5019406;28;20052;-82
2024/01/06 05:44:41;;;;;;;11.60;10.35;;;1.70;99.90;;;;;;5037282;28;20429;-82
2024/01/06 05:47:08;;;;;;;12.63;11.43;;;2.20;99.90;;;;;;5036358;28;20049;-82
2024/01/06 05:49:33;;;;;;;12.88;11.57;;;1.70;99.90;;;;;;5019856;28;20069;-82
2024/01/06 05:51:59;;;;;;;12.77;11.57;;;1.80;99.90;;;;;;5019681;28;20057;-82
2024/01/06 05:54:25;;;;;;;13.95;11.40;;;1.70;99.90;;;;;;5019905;28;20095;-82
2024/01/06 05:56:51;;;;;;;12.65;11.35;;;2.10;99.90;;;;;;5036294;28;20443;-82
2024/01/06 05:59:17;;;;;;;12.23;11.02;;;1.60;99.90;;;;;;5037018;28;20049;-82
2024/01/06 06:01:43;;;;;;;13.52;12.30;;;1.60;99.90;;;;;;5036040;28;20056;-82
2024/01/06 06:04:11;;;;;;;12.55;11.35;;;2.40;99.90;;;;;;5035807;28;20494;-83
2024/01/06 06:06:37;;;;;;;13.10;11.90;;;2.20;99.90;;;;;;5036231;28;20047;-82
2024/01/06 06:09:06;;;;;;;11.98;10.88;;;1.70;99.90;;;;;;5003209;28;20053;-82
2024/01/06 06:11:35;;;;;;;12.95;11.70;;;1.70;99.90;;;;;;5035703;28;20057;-82
2024/01/06 06:14:02;;;;;;;12.40;11.25;;;1.70;99.90;;;;;;5003863;28;20053;-82
2024/01/06 06:16:29;;;;;;;12.05;10.77;;;2.00;99.90;;;;;;5036711;28;20099;-82
2024/01/06 06:18:55;;;;;;;13.20;11.80;;;1.60;99.90;;;;;;5036575;28;20057;-82
2024/01/06 06:21:21;;;;;;;12.02;10.82;;;1.60;99.90;;;;;;5035348;28;20048;-82
2024/01/06 06:23:46;;;;;;;12.40;11.10;;;1.80;99.90;;;;;;5019292;28;20049;-82
2024/01/06 06:26:13;;;;;;;12.05;11.02;;;1.60;99.90;;;;;;5002901;28;20045;-82
2024/01/06 06:28:38;;;;;;;13.00;11.90;;;1.50;99.90;;;;;;5035701;28;20132;-82
2024/01/06 06:31:04;;;;;;;12.57;11.30;;;2.10;99.90;;;;;;5019163;28;20081;-82
2024/01/06 06:33:30;;;;;;;13.57;12.38;;;2.20;99.90;;;;;;5019174;28;20393;-82
2024/01/06 06:35:56;;;;;;;13.18;11.88;;;1.50;99.90;;;;;;5035456;28;20122;-82
2024/01/06 06:38:21;;;;;;;13.70;12.43;;;1.70;99.90;;;;;;5018715;28;20521;-82
2024/01/06 06:40:47;;;;;;;13.80;12.60;;;1.50;99.90;;;;;;5019564;28;20046;-83
2024/01/06 06:43:14;;;;;;;12.00;10.82;;;2.00;99.90;;;;;;5003080;28;20045;-83
2024/01/06 06:45:39;;;;;;;12.98;11.68;;;1.50;99.90;;;;;;5036309;28;20042;-82
2024/01/06 06:48:06;;;;;;;13.90;12.52;;;1.50;99.90;;;;;;5035314;28;20136;-82
2024/01/06 06:50:32;;;;;;;14.35;13.05;;;1.50;99.90;;;;;;5018812;28;20493;-82
2024/01/06 06:52:58;;;;;;;13.20;11.93;;;1.50;99.90;;;;;;5001406;28;20134;-83
2024/01/06 06:55:24;;;;;;;12.70;11.50;;;1.50;99.90;;;;;;5002392;28;20056;-82
2024/01/06 06:57:49;;;;;;;13.63;12.23;;;1.40;99.90;;;;;;5002377;28;20049;-82
2024/01/06 07:00:17;;;;;;;13.70;12.40;;;1.50;99.90;;;;;;5035067;28;20180;-83
2024/01/06 07:02:42;;;;;;;13.98;12.73;;;1.50;99.90;;;;;;5034788;28;20045;-82
2024/01/06 07:05:08;;;;;;;12.32;11.13;;;1.50;99.90;;;;;;5018951;28;20484;-83
2024/01/06 07:07:34;;;;;;;13.10;11.90;;;1.50;99.90;;;;;;5001797;28;20077;-82
2024/01/06 07:10:04;;;;;;;11.60;10.48;;;1.50;99.90;;;;;;5002847;28;20064;-82
2024/01/06 07:12:33;;;;;;;16.50;10.90;;;1.40;99.90;;;;;;5018645;28;20053;-82
2024/01/06 07:14:59;;;;;;;15.93;13.00;;;1.90;99.90;;;;;;5019085;28;20132;-82
2024/01/06 07:17:25;;;;;;;12.27;11.07;;;1.50;99.90;;;;;;5018552;28;20092;-83
2024/01/06 07:19:51;;;;;;;13.07;11.88;;;1.40;99.90;;;;;;5034350;28;20042;-83
2024/01/06 07:22:18;;;;;;;13.32;11.85;;;1.40;99.90;;;;;;5035361;28;20136;-83
2024/01/06 07:24:44;;;;;;;11.63;10.52;;;1.40;99.90;;;;;;5018068;28;20056;-82
2024/01/06 07:27:09;;;;;;;11.80;10.70;;;1.60;99.90;;;;;;5017995;28;20041;-83
2024/01/06 07:29:35;;;;;;;12.30;11.20;;;1.80;99.90;;;;;;5034481;28;20056;-83
2024/01/06 07:32:01;;;;;;;11.85;10.65;;;1.40;99.90;;;;;;5017942;28;20041;-83
2024/01/06 07:34:27;;;;;;;13.82;10.82;;;1.40;99.90;;;;;;5018128;28;20049;-83
2024/01/06 07:36:53;;;;;;;12.45;11.27;;;2.00;99.90;;;;;;5035168;28;20053;-83
2024/01/06 07:39:18;;;;;;;12.65;11.35;;;1.30;99.90;;;;;;5017746;28;20096;-82
2024/01/06 07:41:46;;;;;;;12.05;10.95;;;1.40;99.90;;;;;;5034242;28;20057;-82
2024/01/06 07:44:12;;;;;;;12.75;11.68;;;1.40;99.90;;;;;;5035061;28;20061;-80
2024/01/06 07:46:40;;;;;;;12.13;11.02;;;1.40;99.90;;;;;;5017866;28;20049;-79
2024/01/06 07:49:06;;;;;;;11.85;10.75;;;1.60;99.90;;;;;;5034149;28;20067;-79
2024/01/06 07:51:32;;;;;;;12.20;11.27;;;1.50;99.90;;;;;;5017058;28;20068;-80
2024/01/06 07:53:58;;;;;;;14.05;12.82;;;1.40;99.90;;;;;;5018123;28;20050;-79
2024/01/06 07:56:24;;;;;;;11.57;10.57;;;1.90;99.90;;;;;;5017198;28;20049;-82
2024/01/06 07:58:49;;;;;;;12.05;10.88;;;1.40;99.90;;;;;;5033567;28;20481;-79
2024/01/06 08:01:15;;;;;;;12.02;10.93;;;2.10;99.90;;;;;;5033787;28;20041;-79
2024/01/06 08:03:41;;;;;;;13.32;11.23;;;1.40;99.90;;;;;;5016933;28;20053;-79
2024/01/06 08:06:06;;;;;;;12.30;11.10;;;1.40;99.90;;;;;;5001061;28;20390;-79
2024/01/06 08:08:32;;;;;;;11.90;10.95;;;1.90;99.90;;;;;;5017258;28;20472;-80
2024/01/06 08:10:58;;;;;;;12.30;11.25;;;1.80;99.90;;;;;;5034515;28;20363;-79
2024/01/06 08:13:24;;;;;;;12.02;10.95;;;2.00;99.90;;;;;;5033273;28;20505;-78
2024/01/06 08:15:50;;;;;;;13.30;12.20;;;1.50;99.90;;;;;;5017174;28;20045;-79
2024/01/06 08:18:16;;;;;;;12.27;11.27;;;1.40;99.90;;;;;;5033518;28;20052;-79
2024/01/06 08:20:42;;;;;;;12.23;11.13;;;1.50;99.90;;;;;;5034326;28;20370;-79
2024/01/06 08:23:08;;;;;;;12.48;11.27;;;1.40;99.90;;;;;;5033230;28;20424;-79
2024/01/06 08:25:34;;;;;;;12.82;11.60;;;1.40;99.90;;;;;;5017030;28;20041;-80
2024/01/06 08:27:59;;;;;;;11.68;10.60;;;1.50;99.90;;;;;;5033130;28;20049;-79
2024/01/06 08:30:25;;;;;;;12.27;11.07;;;1.50;99.90;;;;;;5033326;28;20085;-79
2024/01/06 08:32:52;;;;;;;11.35;10.35;;;1.50;99.90;;;;;;5017564;28;20046;-80
2024/01/06 08:35:19;;;;;;;11.43;10.43;;;1.50;99.90;;;;;;5032985;28;20409;-81
2024/01/06 08:37:45;;;;;;;13.18;11.90;;;1.50;99.90;;;;;;5033538;28;20084;-80
2024/01/06 08:40:11;;;;;;;11.20;10.20;;;1.50;99.90;;;;;;5033406;28;20049;-80
2024/01/06 08:42:37;;;;;;;11.85;10.70;;;1.50;99.90;;;;;;5032942;28;20120;-79
2024/01/06 08:45:04;;;;;;;12.43;11.32;;;1.50;99.90;;;;;;5016955;28;20128;-79
2024/01/06 08:47:37;;;;;;;11.90;10.90;;;1.50;99.90;;;;;;5033442;28;20048;-82
2024/01/06 08:50:04;;;;;;;12.00;10.90;;;1.50;99.90;;;;;;5033041;28;20050;-79
2024/01/06 08:52:30;;;;;;;12.02;11.02;;;1.40;99.90;;;;;;5016286;28;20092;-80
2024/01/06 08:54:55;;;;;;;10.38;9.55;;;1.50;99.90;;;;;;5032830;28;20093;-79
2024/01/06 08:57:21;;;;;;;11.77;10.88;;;1.50;99.90;;;;;;5032594;28;20077;-80
2024/01/06 08:59:47;;;;;;;11.00;10.07;;;1.50;99.90;;;;;;5032155;28;20099;-82
2024/01/06 09:02:12;;;;;;;12.45;11.38;;;1.90;99.90;;;;;;4999542;28;20056;-87
2024/01/06 09:04:38;;;;;;;11.95;10.90;;;1.50;99.90;;;;;;4999241;28;20049;-85
2024/01/06 09:07:05;;;;;;;12.32;11.23;;;2.20;99.90;;;;;;4984252;28;20464;-85
2024/01/06 09:09:30;;;;;;;11.88;10.88;;;1.60;99.90;;;;;;4983750;28;20045;-85
2024/01/06 09:11:56;;;;;;;10.88;9.90;;;1.90;99.90;;;;;;5016168;28;20045;-84
2024/01/06 09:14:22;;;;;;;11.05;9.98;;;2.00;99.90;;;;;;4999984;28;20084;-86
2024/01/06 09:16:47;;;;;;;12.05;11.02;;;1.60;99.90;;;;;;4999538;28;20045;-85
2024/01/06 09:19:13;;;;;;;12.10;10.90;;;2.00;99.90;;;;;;5016860;28;20132;-87
2024/01/06 09:21:39;;;;;;;13.23;12.02;;;2.40;99.90;;;;;;5016727;28;20463;-84
2024/01/06 09:24:06;;;;;;;13.23;12.00;;;1.60;99.90;;;;;;5000555;28;20390;-87
2024/01/06 09:26:35;;;;;;;12.57;11.27;;;1.70;99.90;;;;;;4984511;28;20485;-84
2024/01/06 09:29:02;;;;;;;11.05;10.15;;;1.70;99.90;;;;;;5015632;28;20052;-82
2024/01/06 09:31:29;;;;;;;12.10;11.10;;;1.70;99.90;;;;;;5015497;28;20057;-84
2024/01/06 09:33:54;;;;;;;10.40;9.60;;;2.00;99.90;;;;;;5032119;28;20049;-84
2024/01/06 09:36:20;;;;;;;11.30;10.27;;;1.70;99.90;;;;;;5031830;28;20045;-84
2024/01/06 09:38:46;;;;;;;10.73;9.73;;;1.90;99.90;;;;;;5032078;28;20501;-85
2024/01/06 09:41:13;;;;;;;11.45;10.52;;;2.40;99.90;;;;;;5015747;28;20050;-83
2024/01/06 09:43:38;;;;;;;10.95;9.95;;;2.40;99.90;;;;;;5000071;28;20043;-82
2024/01/06 09:46:31;;;;;;;11.35;10.32;;;1.70;99.90;;;;;;5015830;28;20474;-82
2024/01/06 09:48:58;;;;;;;11.73;10.68;;;1.90;99.90;;;;;;5011052;28;20053;-82
2024/01/06 09:51:25;;;;;;;12.00;10.77;;;1.80;99.90;;;;;;4999338;28;20092;-84
2024/01/06 09:54:02;;;;;;;11.50;10.50;;;1.70;99.90;;;;;;5015422;28;20111;-86
2024/01/06 09:56:29;;;;;;;11.93;10.77;;;1.70;99.90;;;;;;5032895;28;20050;-83
2024/01/06 09:58:56;;;;;;;11.55;10.55;;;2.50;99.90;;;;;;5032334;28;20483;-83
2024/01/06 10:01:22;;;;;;;12.20;11.10;;;2.40;99.90;;;;;;5015396;28;20410;-83
2024/01/06 10:03:48;;;;;;;12.73;11.55;;;1.70;99.90;;;;;;5015271;28;20038;-84
2024/01/06 10:06:15;;;;;;;12.68;11.60;;;1.70;99.90;;;;;;5031918;28;20482;-83
2024/01/06 10:08:47;;;;;;;12.90;11.77;;;1.80;99.90;;;;;;5015550;28;20090;-83
2024/01/06 10:11:13;;;;;;;13.02;11.88;;;2.50;99.90;;;;;;5015871;28;20083;-84
2024/01/06 10:13:39;;;;;;;13.40;12.15;;;1.80;99.90;;;;;;5016360;28;20188;-83
2024/01/06 10:16:08;;;;;;;13.20;11.93;;;2.60;99.90;;;;;;4999150;28;20445;-83
2024/01/06 10:18:35;;;;;;;12.82;11.55;;;2.40;99.90;;;;;;5032352;28;20140;-83
2024/01/06 10:21:05;;;;;;;12.02;10.95;;;2.30;99.90;;;;;;5031951;28;20050;-83
2024/01/06 10:23:32;;;;;;;14.25;12.80;;;1.70;99.90;;;;;;5015224;28;20034;-87
2024/01/06 10:25:58;;;;;;;12.93;11.82;;;2.40;99.90;;;;;;5032101;28;20045;-85
2024/01/06 10:28:24;;;;;;;11.77;10.68;;;1.70;99.90;;;;;;5017438;28;20076;-85
2024/01/06 10:30:52;;;;;;;12.07;11.07;;;1.70;99.90;;;;;;5019557;28;20084;-89
2024/01/06 10:33:20;;;;;;;11.90;10.80;;;2.10;99.90;;;;;;5019010;28;20053;-88
2024/01/06 10:35:47;;;;;;;13.07;11.98;;;2.40;99.90;;;;;;5019339;28;20439;-87
2024/01/06 10:38:13;;;;;;;12.68;11.52;;;1.70;99.90;;;;;;5034676;28;20533;-86
2024/01/06 10:40:39;;;;;;;12.25;11.05;;;1.70;99.90;;;;;;5002525;28;20077;-83
2024/01/06 10:43:06;;;;;;;11.90;10.90;;;1.70;99.90;;;;;;5002175;28;20545;-84
2024/01/06 10:45:32;;;;;;;12.85;11.63;;;2.50;99.90;;;;;;5002006;28;20053;-85
2024/01/06 10:47:59;;;;;;;11.68;10.65;;;2.40;99.90;;;;;;5018785;28;20099;-86
2024/01/06 10:50:27;;;;;;;11.63;10.52;;;2.50;99.90;;;;;;5034773;28;20038;-83
2024/01/06 10:52:55;;;;;;;11.05;9.95;;;1.70;99.90;;;;;;5018288;28;20076;-87
2024/01/06 10:55:21;;;;;;;12.00;10.80;;;2.40;99.90;;;;;;5034922;28;20045;-84
2024/01/06 10:57:50;;;;;;;12.43;11.18;;;1.60;99.90;;;;;;5018358;28;20049;-83
2024/01/06 11:00:17;;;;;;;12.50;11.30;;;2.20;99.90;;;;;;5035368;28;20382;-86
2024/01/06 11:02:47;;;;;;;12.65;11.40;;;1.70;99.90;;;;;;5018769;28;20098;-85
2024/01/06 11:05:13;;;;;;;12.88;11.45;;;1.70;99.90;;;;;;5017821;28;20046;-84
2024/01/06 11:07:40;;;;;;;12.43;11.15;;;1.70;99.90;;;;;;5017908;28;20056;-83
2024/01/06 11:10:06;;;;;;;13.13;11.90;;;1.60;99.90;;;;;;5035032;28;20397;-82
2024/01/06 11:12:33;;;;;;;12.80;11.52;;;1.70;99.90;;;;;;5035718;28;20049;-84
2024/01/06 11:14:58;;;;;;;12.57;11.45;;;2.40;99.90;;;;;;5034570;28;20049;-82
2024/01/06 11:17:53;;;;;;;11.85;10.70;;;1.80;99.90;;;;;;5018952;28;20041;-85
2024/01/06 11:20:20;;;;;;;12.30;10.80;;;1.70;99.90;;;;;;5018806;28;20049;-83
2024/01/06 11:22:45;;;;;;;12.52;10.90;;;2.60;99.90;;;;;;5017918;28;20099;-85
2024/01/06 11:25:16;;;;;;;12.50;11.20;;;1.60;99.90;;;;;;5001662;28;20083;-88
2024/01/06 11:27:45;;;;;;;13.30;12.00;;;1.60;99.90;;;;;;5018728;28;20056;-87
2024/01/06 11:30:23;;;;;;;13.75;12.02;;;1.60;99.90;;;;;;5034746;28;20108;-86
2024/01/06 11:32:54;;;;;;;14.50;11.30;;;1.60;99.90;;;;;;5034155;28;20065;-85
2024/01/06 11:35:21;;;;;;;12.85;11.57;;;1.60;99.90;;;;;;5034573;28;20089;-84
2024/01/06 11:37:46;;;;;;;13.82;12.68;;;1.80;99.90;;;;;;5018342;28;20050;-83
2024/01/06 11:40:21;;;;;;;11.25;10.30;;;2.40;99.90;;;;;;5034180;28;20499;-84
2024/01/06 11:43:26;;;;;;;11.75;10.40;;;1.70;99.90;;;;;;5017706;28;20540;-83
2024/01/06 11:45:57;;;;;;;14.35;11.65;;;1.70;99.90;;;;;;5004242;28;20522;-84
2024/01/06 11:48:24;;;;;;;14.15;12.77;;;2.60;99.90;;;;;;5017946;28;20062;-83
2024/01/06 11:50:50;;;;;;;12.63;11.43;;;1.60;99.90;;;;;;5034060;28;20041;-84
2024/01/06 11:53:15;;;;;;;12.13;10.82;;;2.40;99.90;;;;;;5017222;28;20060;-83
2024/01/06 11:55:42;;;;;;;14.10;11.52;;;2.50;99.90;;;;;;5017771;28;20111;-84
2024/01/06 11:58:08;;;;;;;13.80;12.40;;;1.60;99.90;;;;;;5018468;28;20385;-84
2024/01/06 12:00:36;;;;;;;13.48;12.07;;;2.50;99.90;;;;;;5033887;28;20042;-84
2024/01/06 12:03:02;;;;;;;12.48;11.25;;;2.60;99.90;;;;;;5017083;28;20044;-83
2024/01/06 12:05:28;;;;;;;12.45;11.10;;;1.60;99.90;;;;;;4984860;28;20041;-83
2024/01/06 12:07:59;;;;;;;14.57;11.55;;;1.60;99.90;;;;;;5017255;28;20099;-84
2024/01/06 12:10:27;;;;;;;13.38;10.85;;;1.60;99.90;;;;;;5034142;28;20064;-85
2024/01/06 12:12:58;;;;;;;13.23;11.95;;;1.60;99.90;;;;;;5033695;28;20092;-85
2024/01/06 12:15:24;;;;;;;11.68;10.25;;;2.50;99.90;;;;;;5001103;28;20553;-84
2024/01/06 12:17:50;;;;;;;10.85;9.77;;;2.10;99.90;;;;;;5000842;28;20509;-82
2024/01/06 12:20:16;;;;;;;11.77;10.57;;;1.60;99.90;;;;;;5034354;28;20053;-83
2024/01/06 12:22:43;;;;;;;11.90;10.73;;;1.70;99.90;;;;;;5000468;28;20037;-84
2024/01/06 12:25:09;;;;;;;11.60;10.55;;;1.70;99.90;;;;;;5001187;28;20187;-84
2024/01/06 12:27:35;;;;;;;11.48;10.38;;;2.50;99.90;;;;;;5016855;28;20144;-83
2024/01/06 12:30:01;;;;;;;11.30;10.10;;;1.70;99.90;;;;;;5000246;28;20057;-83
2024/01/06 12:32:28;;;;;;;11.38;10.38;;;2.50;99.90;;;;;;5000569;28;20044;-84
2024/01/06 12:34:53;;;;;;;11.43;10.23;;;1.60;99.90;;;;;;5016952;28;20049;-84